sensor_id;sensor_type;location;lat;lon;timestamp;pressure;altitude;pressure_sealevel;temperature;humidity
27958;BME280;15295;42.658;23.374;2024-03-22T00:00:44;94633.38;;;13.59;30.33
27958;BME280;15295;42.658;23.374;2024-03-22T00:03:10;94619.66;;;13.32;30.02
27958;BME280;15295;42.658;23.374;2024-03-22T00:05:36;94636.06;;;13.36;29.93
27958;BME280;15295;42.658;23.374;2024-03-22T00:08:01;94620.94;;;13.24;30.15
27958;BME280;15295;42.658;23.374;2024-03-22T00:10:27;94628.13;;;13.14;30.93
27958;BME280;15295;42.658;23.374;2024-03-22T00:12:53;94598.97;;;12.94;31.18
27958;BME280;15295;42.658;23.374;2024-03-22T00:15:19;94625.03;;;13.12;30.72
27958;BME280;15295;42.658;23.374;2024-03-22T00:17:45;94620.03;;;13.00;31.18
27958;BME280;15295;42.658;23.374;2024-03-22T00:20:11;94625.59;;;12.97;31.53
27958;BME280;15295;42.658;23.374;2024-03-22T00:22:36;94627.25;;;12.87;31.44
27958;BME280;15295;42.658;23.374;2024-03-22T00:25:02;94619.25;;;12.70;32.29
27958;BME280;15295;42.658;23.374;2024-03-22T00:27:29;94619.28;;;12.66;32.46
27958;BME280;15295;42.658;23.374;2024-03-22T00:29:54;94612.28;;;12.62;32.45
27958;BME280;15295;42.658;23.374;2024-03-22T00:32:20;94623.25;;;12.62;32.98
27958;BME280;15295;42.658;23.374;2024-03-22T00:34:46;94628.47;;;12.53;31.88
27958;BME280;15295;42.658;23.374;2024-03-22T00:37:12;94616.41;;;12.43;32.38
27958;BME280;15295;42.658;23.374;2024-03-22T00:39:37;94582.22;;;12.17;32.12
27958;BME280;15295;42.658;23.374;2024-03-22T00:42:03;94642.22;;;12.46;32.45
27958;BME280;15295;42.658;23.374;2024-03-22T00:44:28;94619.63;;;12.34;32.59
27958;BME280;15295;42.658;23.374;2024-03-22T00:46:54;94634.59;;;12.26;32.12
27958;BME280;15295;42.658;23.374;2024-03-22T00:49:21;94630.09;;;12.06;32.62
27958;BME280;15295;42.658;23.374;2024-03-22T00:51:46;94630.47;;;12.04;32.75
27958;BME280;15295;42.658;23.374;2024-03-22T00:54:12;94607.22;;;11.82;32.87
27958;BME280;15295;42.658;23.374;2024-03-22T00:56:38;94614.97;;;11.87;32.90
27958;BME280;15295;42.658;23.374;2024-03-22T00:59:03;94589.72;;;11.69;32.92
27958;BME280;15295;42.658;23.374;2024-03-22T01:01:29;94612.75;;;11.75;33.17
27958;BME280;15295;42.658;23.374;2024-03-22T01:03:54;94627.16;;;11.83;33.55
27958;BME280;15295;42.658;23.374;2024-03-22T01:06:20;94619.38;;;11.74;33.88
27958;BME280;15295;42.658;23.374;2024-03-22T01:08:52;94605.75;;;11.71;34.34
27958;BME280;15295;42.658;23.374;2024-03-22T01:11:18;94614.28;;;11.76;34.14
27958;BME280;15295;42.658;23.374;2024-03-22T01:13:43;94624.41;;;11.86;34.42
27958;BME280;15295;42.658;23.374;2024-03-22T01:16:09;94622.44;;;11.87;34.02
27958;BME280;15295;42.658;23.374;2024-03-22T01:18:36;94629.78;;;11.93;33.87
27958;BME280;15295;42.658;23.374;2024-03-22T01:21:03;94632.97;;;11.88;33.91
27958;BME280;15295;42.658;23.374;2024-03-22T01:23:28;94638.09;;;11.86;34.22
27958;BME280;15295;42.658;23.374;2024-03-22T01:25:54;94574.25;;;11.45;34.29
27958;BME280;15295;42.658;23.374;2024-03-22T01:28:20;94618.97;;;11.79;34.30
27958;BME280;15295;42.658;23.374;2024-03-22T01:30:47;94624.41;;;11.83;34.88
27958;BME280;15295;42.658;23.374;2024-03-22T01:33:13;94604.59;;;11.64;34.55
27958;BME280;15295;42.658;23.374;2024-03-22T01:35:38;94592.84;;;11.64;34.57
27958;BME280;15295;42.658;23.374;2024-03-22T01:38:04;94623.19;;;11.87;34.74
27958;BME280;15295;42.658;23.374;2024-03-22T01:40:29;94621.66;;;11.86;34.31
27958;BME280;15295;42.658;23.374;2024-03-22T01:42:58;94629.41;;;11.95;34.27
27958;BME280;15295;42.658;23.374;2024-03-22T01:45:24;94622.75;;;11.96;34.69
27958;BME280;15295;42.658;23.374;2024-03-22T01:47:51;94603.22;;;11.90;34.53
27958;BME280;15295;42.658;23.374;2024-03-22T01:50:20;94635.16;;;12.07;34.08
27958;BME280;15295;42.658;23.374;2024-03-22T01:52:46;94606.72;;;11.94;33.95
27958;BME280;15295;42.658;23.374;2024-03-22T01:55:12;94612.53;;;12.00;34.51
27958;BME280;15295;42.658;23.374;2024-03-22T01:57:38;94619.19;;;11.99;34.44
27958;BME280;15295;42.658;23.374;2024-03-22T02:00:04;94623.00;;;12.08;34.67
27958;BME280;15295;42.658;23.374;2024-03-22T02:02:29;94640.19;;;12.16;34.41
27958;BME280;15295;42.658;23.374;2024-03-22T02:04:56;94610.94;;;12.02;34.43
27958;BME280;15295;42.658;23.374;2024-03-22T02:07:21;94627.63;;;12.18;34.43
27958;BME280;15295;42.658;23.374;2024-03-22T02:09:47;94611.22;;;12.15;34.45
27958;BME280;15295;42.658;23.374;2024-03-22T02:12:13;94621.38;;;12.18;34.52
27958;BME280;15295;42.658;23.374;2024-03-22T02:14:38;94610.47;;;12.11;34.83
27958;BME280;15295;42.658;23.374;2024-03-22T02:17:04;94608.94;;;12.06;34.62
27958;BME280;15295;42.658;23.374;2024-03-22T02:19:30;94630.75;;;12.20;34.74
27958;BME280;15295;42.658;23.374;2024-03-22T02:21:55;94630.00;;;12.16;34.71
27958;BME280;15295;42.658;23.374;2024-03-22T02:24:21;94631.22;;;12.12;34.88
27958;BME280;15295;42.658;23.374;2024-03-22T02:26:46;94633.13;;;12.15;34.75
27958;BME280;15295;42.658;23.374;2024-03-22T02:29:12;94620.78;;;11.96;35.32
27958;BME280;15295;42.658;23.374;2024-03-22T02:31:37;94616.09;;;11.93;35.04
27958;BME280;15295;42.658;23.374;2024-03-22T02:34:03;94617.72;;;11.87;34.92
27958;BME280;15295;42.658;23.374;2024-03-22T02:36:29;94618.47;;;11.91;34.90
27958;BME280;15295;42.658;23.374;2024-03-22T02:38:54;94637.63;;;11.95;35.07
27958;BME280;15295;42.658;23.374;2024-03-22T02:41:21;94611.25;;;11.67;35.23
27958;BME280;15295;42.658;23.374;2024-03-22T02:43:46;94638.09;;;11.83;35.12
27958;BME280;15295;42.658;23.374;2024-03-22T02:46:12;94651.03;;;11.82;35.03
27958;BME280;15295;42.658;23.374;2024-03-22T02:48:37;94623.50;;;11.45;35.11
27958;BME280;15295;42.658;23.374;2024-03-22T02:51:04;94636.03;;;11.42;35.37
27958;BME280;15295;42.658;23.374;2024-03-22T02:53:30;94650.88;;;11.45;35.50
27958;BME280;15295;42.658;23.374;2024-03-22T02:55:55;94654.75;;;11.47;35.44
27958;BME280;15295;42.658;23.374;2024-03-22T02:58:21;94652.81;;;11.48;35.19
27958;BME280;15295;42.658;23.374;2024-03-22T03:00:47;94648.16;;;11.38;35.20
27958;BME280;15295;42.658;23.374;2024-03-22T03:03:13;94653.25;;;11.39;35.30
27958;BME280;15295;42.658;23.374;2024-03-22T03:05:38;94664.50;;;11.48;35.29
27958;BME280;15295;42.658;23.374;2024-03-22T03:08:04;94657.16;;;11.38;35.35
27958;BME280;15295;42.658;23.374;2024-03-22T03:10:29;94662.69;;;11.28;35.14
27958;BME280;15295;42.658;23.374;2024-03-22T03:12:55;94663.88;;;11.23;35.14
27958;BME280;15295;42.658;23.374;2024-03-22T03:15:21;94671.75;;;11.18;35.12
27958;BME280;15295;42.658;23.374;2024-03-22T03:17:46;94663.59;;;11.00;35.25
27958;BME280;15295;42.658;23.374;2024-03-22T03:20:12;94674.16;;;10.98;35.35
27958;BME280;15295;42.658;23.374;2024-03-22T03:22:41;94679.31;;;10.78;35.58
27958;BME280;15295;42.658;23.374;2024-03-22T03:25:07;94668.84;;;10.52;35.58
27958;BME280;15295;42.658;23.374;2024-03-22T03:27:33;94664.97;;;10.43;35.75
27958;BME280;15295;42.658;23.374;2024-03-22T03:29:59;94688.75;;;10.46;36.02
27958;BME280;15295;42.658;23.374;2024-03-22T03:32:25;94679.44;;;10.36;36.23
27958;BME280;15295;42.658;23.374;2024-03-22T03:34:51;94666.16;;;10.10;36.36
27958;BME280;15295;42.658;23.374;2024-03-22T03:37:16;94694.25;;;10.32;36.50
27958;BME280;15295;42.658;23.374;2024-03-22T03:39:42;94700.13;;;10.09;36.82
27958;BME280;15295;42.658;23.374;2024-03-22T03:42:07;94660.72;;;9.85;36.99
27958;BME280;15295;42.658;23.374;2024-03-22T03:44:33;94700.09;;;10.02;37.18
27958;BME280;15295;42.658;23.374;2024-03-22T03:47:01;94670.47;;;9.86;37.25
27958;BME280;15295;42.658;23.374;2024-03-22T03:49:26;94704.41;;;9.99;37.52
27958;BME280;15295;42.658;23.374;2024-03-22T03:51:52;94706.72;;;9.87;37.81
27958;BME280;15295;42.658;23.374;2024-03-22T03:54:17;94697.75;;;9.72;38.04
27958;BME280;15295;42.658;23.374;2024-03-22T03:56:43;94713.72;;;9.63;38.26
27958;BME280;15295;42.658;23.374;2024-03-22T03:59:08;94689.56;;;9.51;38.38
27958;BME280;15295;42.658;23.374;2024-03-22T04:01:34;94705.16;;;9.61;38.33
27958;BME280;15295;42.658;23.374;2024-03-22T04:04:00;94687.94;;;9.43;38.81
27958;BME280;15295;42.658;23.374;2024-03-22T04:06:25;94696.13;;;9.43;38.73
27958;BME280;15295;42.658;23.374;2024-03-22T04:08:51;94684.06;;;9.41;38.70
27958;BME280;15295;42.658;23.374;2024-03-22T04:11:16;94717.19;;;9.50;38.77
27958;BME280;15295;42.658;23.374;2024-03-22T04:13:42;94719.56;;;9.55;38.88
27958;BME280;15295;42.658;23.374;2024-03-22T04:16:07;94686.38;;;9.35;38.94
27958;BME280;15295;42.658;23.374;2024-03-22T04:18:33;94717.97;;;9.50;38.82
27958;BME280;15295;42.658;23.374;2024-03-22T04:20:59;94679.34;;;9.20;38.94
27958;BME280;15295;42.658;23.374;2024-03-22T04:23:25;94723.81;;;9.42;38.82
27958;BME280;15295;42.658;23.374;2024-03-22T04:25:55;94701.97;;;9.34;38.96
27958;BME280;15295;42.658;23.374;2024-03-22T04:28:22;94720.72;;;9.50;38.69
27958;BME280;15295;42.658;23.374;2024-03-22T04:30:59;94729.28;;;9.52;38.81
27958;BME280;15295;42.658;23.374;2024-03-22T04:33:25;94714.50;;;9.57;38.58
27958;BME280;15295;42.658;23.374;2024-03-22T04:35:51;94723.84;;;9.63;38.48
27958;BME280;15295;42.658;23.374;2024-03-22T04:38:16;94709.06;;;9.64;38.53
27958;BME280;15295;42.658;23.374;2024-03-22T04:40:42;94736.75;;;9.83;38.55
27958;BME280;15295;42.658;23.374;2024-03-22T04:43:08;94734.03;;;9.90;38.29
27958;BME280;15295;42.658;23.374;2024-03-22T04:45:34;94734.03;;;9.94;38.23
27958;BME280;15295;42.658;23.374;2024-03-22T04:48:01;94736.41;;;10.17;40.99
27958;BME280;15295;42.658;23.374;2024-03-22T04:50:27;94724.69;;;10.16;38.88
27958;BME280;15295;42.658;23.374;2024-03-22T04:52:56;94734.47;;;10.24;38.25
27958;BME280;15295;42.658;23.374;2024-03-22T04:55:23;94723.91;;;10.23;37.39
27958;BME280;15295;42.658;23.374;2024-03-22T04:57:49;94741.88;;;10.34;37.39
27958;BME280;15295;42.658;23.374;2024-03-22T05:00:15;94702.06;;;10.12;37.55
27958;BME280;15295;42.658;23.374;2024-03-22T05:02:46;94713.75;;;10.27;37.86
27958;BME280;15295;42.658;23.374;2024-03-22T05:05:13;94748.09;;;10.52;37.77
27958;BME280;15295;42.658;23.374;2024-03-22T05:10:17;94751.97;;;10.79;37.82
27958;BME280;15295;42.658;23.374;2024-03-22T05:12:43;94741.03;;;10.79;37.92
27958;BME280;15295;42.658;23.374;2024-03-22T05:35:50;94774.25;;;10.39;37.44
27958;BME280;15295;42.658;23.374;2024-03-22T05:38:47;94773.88;;;10.30;37.62
27958;BME280;15295;42.658;23.374;2024-03-22T05:44:43;94698.13;;;9.78;37.87
27958;BME280;15295;42.658;23.374;2024-03-22T05:47:45;94710.22;;;9.94;37.67
27958;BME280;15295;42.658;23.374;2024-03-22T05:50:45;94758.28;;;10.31;37.71
27958;BME280;15295;42.658;23.374;2024-03-22T05:53:49;94784.00;;;10.68;37.30
27958;BME280;15295;42.658;23.374;2024-03-22T05:56:56;94747.69;;;10.64;36.87
27958;BME280;15295;42.658;23.374;2024-03-22T05:59:42;94750.78;;;10.63;37.03
27958;BME280;15295;42.658;23.374;2024-03-22T06:03:16;94795.63;;;11.11;36.66
27958;BME280;15295;42.658;23.374;2024-03-22T06:06:15;94769.44;;;11.10;36.34
27958;BME280;15295;42.658;23.374;2024-03-22T06:09:18;94801.81;;;11.33;36.39
27958;BME280;15295;42.658;23.374;2024-03-22T06:25:09;94716.63;;;11.96;35.75
27958;BME280;15295;42.658;23.374;2024-03-22T06:27:48;94730.81;;;12.35;35.02
27958;BME280;15295;42.658;23.374;2024-03-22T06:30:15;94721.25;;;12.54;34.72
27958;BME280;15295;42.658;23.374;2024-03-22T06:32:41;94796.56;;;13.28;34.12
27958;BME280;15295;42.658;23.374;2024-03-22T06:35:09;94791.13;;;13.54;33.59
27958;BME280;15295;42.658;23.374;2024-03-22T06:37:44;94768.94;;;13.72;33.29
27958;BME280;15295;42.658;23.374;2024-03-22T06:40:19;94786.91;;;14.07;32.30
27958;BME280;15295;42.658;23.374;2024-03-22T06:42:51;94762.06;;;14.14;32.10
27958;BME280;15295;42.658;23.374;2024-03-22T06:45:32;94801.81;;;14.62;31.54
27958;BME280;15295;42.658;23.374;2024-03-22T06:47:58;94804.69;;;14.79;31.13
27958;BME280;15295;42.658;23.374;2024-03-22T06:50:24;94776.38;;;14.78;30.98
27958;BME280;15295;42.658;23.374;2024-03-22T06:52:56;94739.78;;;14.81;30.57
27958;BME280;15295;42.658;23.374;2024-03-22T06:55:24;94759.19;;;15.17;30.55
27958;BME280;15295;42.658;23.374;2024-03-22T06:58:16;94797.94;;;15.69;30.19
27958;BME280;15295;42.658;23.374;2024-03-22T07:18:55;94781.16;;;17.60;28.32
27958;BME280;15295;42.658;23.374;2024-03-22T07:21:49;94809.38;;;17.96;27.71
27958;BME280;15295;42.658;23.374;2024-03-22T07:24:23;94825.78;;;18.28;27.92
27958;BME280;15295;42.658;23.374;2024-03-22T07:26:56;94801.31;;;18.27;27.45
27958;BME280;15295;42.658;23.374;2024-03-22T07:29:30;94765.34;;;18.14;27.24
27958;BME280;15295;42.658;23.374;2024-03-22T07:32:18;94756.06;;;18.21;26.77
27958;BME280;15295;42.658;23.374;2024-03-22T07:35:12;94827.38;;;18.80;26.50
27958;BME280;15295;42.658;23.374;2024-03-22T07:37:45;94825.84;;;18.91;26.31
27958;BME280;15295;42.658;23.374;2024-03-22T07:40:21;94798.59;;;18.90;26.04
27958;BME280;15295;42.658;23.374;2024-03-22T07:42:53;94825.09;;;19.25;25.57
27958;BME280;15295;42.658;23.374;2024-03-22T07:45:35;94805.38;;;19.23;25.62
27958;BME280;15295;42.658;23.374;2024-03-22T07:48:31;94827.91;;;19.59;25.43
27958;BME280;15295;42.658;23.374;2024-03-22T07:51:02;94790.06;;;19.31;24.19
27958;BME280;15295;42.658;23.374;2024-03-22T07:54:07;94837.47;;;19.58;24.66
27958;BME280;15295;42.658;23.374;2024-03-22T07:59:17;94776.56;;;19.33;24.70
27958;BME280;15295;42.658;23.374;2024-03-22T08:15:18;94838.72;;;20.00;23.97
27958;BME280;15295;42.658;23.374;2024-03-22T08:38:55;94760.91;;;20.56;22.89
27958;BME280;15295;42.658;23.374;2024-03-22T09:10:15;94829.91;;;22.28;21.25
27958;BME280;15295;42.658;23.374;2024-03-22T09:36:30;94780.72;;;22.07;20.69
27958;BME280;15295;42.658;23.374;2024-03-22T12:04:49;94638.22;;;22.92;19.05
27958;BME280;15295;42.658;23.374;2024-03-22T12:12:16;94640.28;;;22.82;19.26
27958;BME280;15295;42.658;23.374;2024-03-22T12:54:38;94560.66;;;22.90;19.01
27958;BME280;15295;42.658;23.374;2024-03-22T13:08:20;94546.59;;;22.70;18.88
27958;BME280;15295;42.658;23.374;2024-03-22T13:11:15;94549.91;;;22.98;18.55
27958;BME280;15295;42.658;23.374;2024-03-22T13:30:09;94587.78;;;23.05;18.75
27958;BME280;15295;42.658;23.374;2024-03-22T13:33:56;94608.69;;;23.24;18.35
27958;BME280;15295;42.658;23.374;2024-03-22T13:36:50;94602.66;;;23.40;18.46
27958;BME280;15295;42.658;23.374;2024-03-22T13:39:30;94594.81;;;23.15;18.62
27958;BME280;15295;42.658;23.374;2024-03-22T13:43:01;94555.53;;;22.74;18.58
27958;BME280;15295;42.658;23.374;2024-03-22T13:46:11;94546.03;;;22.81;18.71
27958;BME280;15295;42.658;23.374;2024-03-22T13:49:01;94523.59;;;22.61;18.46
27958;BME280;15295;42.658;23.374;2024-03-22T13:51:36;94578.06;;;23.00;18.88
27958;BME280;15295;42.658;23.374;2024-03-22T13:59:28;94529.09;;;22.46;18.90
27958;BME280;15295;42.658;23.374;2024-03-22T14:01:54;94551.31;;;22.79;18.69
27958;BME280;15295;42.658;23.374;2024-03-22T14:04:29;94509.50;;;22.41;18.85
27958;BME280;15295;42.658;23.374;2024-03-22T14:07:19;94509.50;;;22.17;19.19
27958;BME280;15295;42.658;23.374;2024-03-22T14:12:45;94562.25;;;22.35;19.71
27958;BME280;15295;42.658;23.374;2024-03-22T14:15:32;94511.44;;;22.02;19.56
27958;BME280;15295;42.658;23.374;2024-03-22T14:18:07;94570.31;;;22.33;19.28
27958;BME280;15295;42.658;23.374;2024-03-22T14:20:49;94494.50;;;21.82;19.53
27958;BME280;15295;42.658;23.374;2024-03-22T14:23:51;94560.72;;;22.10;19.68
27958;BME280;15295;42.658;23.374;2024-03-22T14:28:56;94504.69;;;21.52;20.17
27958;BME280;15295;42.658;23.374;2024-03-22T14:31:29;94508.88;;;21.47;20.20
27958;BME280;15295;42.658;23.374;2024-03-22T14:34:13;94507.56;;;21.25;20.61
27958;BME280;15295;42.658;23.374;2024-03-22T14:37:10;94494.78;;;21.09;20.37
27958;BME280;15295;42.658;23.374;2024-03-22T14:39:45;94521.00;;;21.17;20.64
27958;BME280;15295;42.658;23.374;2024-03-22T14:42:31;94474.94;;;20.65;20.72
27958;BME280;15295;42.658;23.374;2024-03-22T14:45:19;94495.28;;;20.71;20.32
27958;BME280;15295;42.658;23.374;2024-03-22T14:53:31;94546.66;;;20.76;20.83
27958;BME280;15295;42.658;23.374;2024-03-22T14:56:02;94511.97;;;20.44;20.90
27958;BME280;15295;42.658;23.374;2024-03-22T15:01:10;94524.13;;;20.56;20.92
27958;BME280;15295;42.658;23.374;2024-03-22T15:03:37;94543.41;;;20.68;20.90
27958;BME280;15295;42.658;23.374;2024-03-22T15:06:05;94474.59;;;20.18;21.03
27958;BME280;15295;42.658;23.374;2024-03-22T15:08:33;94515.19;;;20.43;21.32
27958;BME280;15295;42.658;23.374;2024-03-22T15:13:50;94464.91;;;20.23;21.30
27958;BME280;15295;42.658;23.374;2024-03-22T15:16:21;94501.59;;;20.45;21.53
27958;BME280;15295;42.658;23.374;2024-03-22T15:18:56;94486.66;;;20.33;21.57
27958;BME280;15295;42.658;23.374;2024-03-22T15:21:29;94542.34;;;20.48;21.84
27958;BME280;15295;42.658;23.374;2024-03-22T15:24:01;94542.94;;;20.43;22.28
27958;BME280;15295;42.658;23.374;2024-03-22T15:26:44;94543.25;;;20.36;21.76
27958;BME280;15295;42.658;23.374;2024-03-22T15:29:40;94502.19;;;20.04;21.77
27958;BME280;15295;42.658;23.374;2024-03-22T15:32:43;94541.06;;;20.22;21.97
27958;BME280;15295;42.658;23.374;2024-03-22T15:35:19;94463.28;;;19.67;21.85
27958;BME280;15295;42.658;23.374;2024-03-22T15:38:17;94499.00;;;19.74;22.36
27958;BME280;15295;42.658;23.374;2024-03-22T15:40:54;94515.38;;;19.81;22.77
27958;BME280;15295;42.658;23.374;2024-03-22T15:43:44;94536.66;;;19.84;22.95
27958;BME280;15295;42.658;23.374;2024-03-22T15:46:53;94503.84;;;19.43;23.12
27958;BME280;15295;42.658;23.374;2024-03-22T15:52:06;94469.25;;;19.26;23.14
27958;BME280;15295;42.658;23.374;2024-03-22T15:59:57;94492.16;;;19.17;23.21
27958;BME280;15295;42.658;23.374;2024-03-22T16:02:32;94532.47;;;19.18;23.39
27958;BME280;15295;42.658;23.374;2024-03-22T16:05:02;94516.22;;;18.99;23.91
27958;BME280;15295;42.658;23.374;2024-03-22T16:08:25;94553.34;;;19.10;23.99
27958;BME280;15295;42.658;23.374;2024-03-22T16:11:01;94523.22;;;18.69;24.08
27958;BME280;15295;42.658;23.374;2024-03-22T16:13:32;94523.75;;;18.77;24.20
27958;BME280;15295;42.658;23.374;2024-03-22T16:16:44;94486.38;;;18.38;24.43
27958;BME280;15295;42.658;23.374;2024-03-22T16:19:18;94512.03;;;18.51;24.33
27958;BME280;15295;42.658;23.374;2024-03-22T16:22:03;94546.38;;;18.63;24.33
27958;BME280;15295;42.658;23.374;2024-03-22T16:27:03;94507.34;;;18.14;24.58
27958;BME280;15295;42.658;23.374;2024-03-22T16:29:37;94567.66;;;18.19;24.72
27958;BME280;15295;42.658;23.374;2024-03-22T16:32:15;94525.78;;;17.95;24.98
27958;BME280;15295;42.658;23.374;2024-03-22T16:34:49;94524.38;;;17.78;25.29
27958;BME280;15295;42.658;23.374;2024-03-22T16:37:18;94545.94;;;17.83;25.47
27958;BME280;15295;42.658;23.374;2024-03-22T16:39:49;94543.94;;;17.71;25.40
27958;BME280;15295;42.658;23.374;2024-03-22T16:42:19;94546.03;;;17.67;25.63
27958;BME280;15295;42.658;23.374;2024-03-22T16:44:47;94533.00;;;17.55;25.77
27958;BME280;15295;42.658;23.374;2024-03-22T16:47:23;94530.44;;;17.48;26.05
27958;BME280;15295;42.658;23.374;2024-03-22T16:49:51;94533.00;;;17.42;26.17
27958;BME280;15295;42.658;23.374;2024-03-22T16:52:25;94536.09;;;17.44;26.21
27958;BME280;15295;42.658;23.374;2024-03-22T16:54:51;94556.94;;;17.33;26.63
27958;BME280;15295;42.658;23.374;2024-03-22T16:57:22;94534.41;;;17.22;26.36
27958;BME280;15295;42.658;23.374;2024-03-22T16:59:56;94589.59;;;17.50;26.69
27958;BME280;15295;42.658;23.374;2024-03-22T17:02:24;94568.00;;;17.33;26.73
27958;BME280;15295;42.658;23.374;2024-03-22T17:04:52;94571.09;;;17.35;26.67
27958;BME280;15295;42.658;23.374;2024-03-22T17:07:20;94528.06;;;16.96;26.56
27958;BME280;15295;42.658;23.374;2024-03-22T17:09:47;94597.59;;;17.32;26.96
27958;BME280;15295;42.658;23.374;2024-03-22T17:12:18;94578.16;;;17.11;26.99
27958;BME280;15295;42.658;23.374;2024-03-22T17:14:49;94603.78;;;17.24;27.04
27958;BME280;15295;42.658;23.374;2024-03-22T17:17:17;94604.66;;;17.21;27.24
27958;BME280;15295;42.658;23.374;2024-03-22T17:19:46;94569.91;;;16.94;27.14
27958;BME280;15295;42.658;23.374;2024-03-22T17:22:16;94546.13;;;16.72;27.34
27958;BME280;15295;42.658;23.374;2024-03-22T17:25:05;94612.28;;;17.17;27.28
27958;BME280;15295;42.658;23.374;2024-03-22T17:27:32;94611.13;;;17.02;27.27
27958;BME280;15295;42.658;23.374;2024-03-22T17:29:58;94580.69;;;16.76;27.51
27958;BME280;15295;42.658;23.374;2024-03-22T17:32:49;94624.00;;;16.92;27.85
27958;BME280;15295;42.658;23.374;2024-03-22T17:35:16;94598.44;;;16.75;27.82
27958;BME280;15295;42.658;23.374;2024-03-22T17:37:51;94631.16;;;16.89;27.83
27958;BME280;15295;42.658;23.374;2024-03-22T17:40:19;94613.72;;;16.80;27.90
27958;BME280;15295;42.658;23.374;2024-03-22T17:42:51;94610.63;;;16.78;28.02
27958;BME280;15295;42.658;23.374;2024-03-22T17:45:18;94610.69;;;16.74;28.10
27958;BME280;15295;42.658;23.374;2024-03-22T17:47:55;94596.00;;;16.65;27.98
27958;BME280;15295;42.658;23.374;2024-03-22T17:50:40;94639.56;;;16.86;28.10
27958;BME280;15295;42.658;23.374;2024-03-22T17:53:15;94577.28;;;16.40;28.14
27958;BME280;15295;42.658;23.374;2024-03-22T17:55:43;94611.00;;;16.48;28.42
27958;BME280;15295;42.658;23.374;2024-03-22T18:01:00;94641.09;;;16.58;28.32
27958;BME280;15295;42.658;23.374;2024-03-22T18:03:54;94655.50;;;16.50;28.45
27958;BME280;15295;42.658;23.374;2024-03-22T18:06:27;94655.75;;;16.39;28.52
27958;BME280;15295;42.658;23.374;2024-03-22T18:08:56;94610.94;;;16.19;28.42
27958;BME280;15295;42.658;23.374;2024-03-22T18:11:24;94650.41;;;16.32;28.43
27958;BME280;15295;42.658;23.374;2024-03-22T18:13:57;94646.78;;;16.19;28.58
27958;BME280;15295;42.658;23.374;2024-03-22T18:16:22;94652.47;;;16.28;28.69
27958;BME280;15295;42.658;23.374;2024-03-22T18:18:49;94654.38;;;16.31;28.85
27958;BME280;15295;42.658;23.374;2024-03-22T18:21:25;94631.13;;;16.16;28.57
27958;BME280;15295;42.658;23.374;2024-03-22T18:26:58;94611.81;;;16.00;29.42
27958;BME280;15295;42.658;23.374;2024-03-22T18:34:41;94627.50;;;16.03;29.07
27958;BME280;15295;42.658;23.374;2024-03-22T18:37:07;94652.97;;;16.23;29.02
27958;BME280;15295;42.658;23.374;2024-03-22T18:44:44;94632.66;;;16.01;29.34
27958;BME280;15295;42.658;23.374;2024-03-22T18:47:19;94625.34;;;15.94;29.36
27958;BME280;15295;42.658;23.374;2024-03-22T19:28:33;94633.47;;;15.50;30.57
27958;BME280;15295;42.658;23.374;2024-03-22T19:46:34;94657.91;;;14.69;31.33
27958;BME280;15295;42.658;23.374;2024-03-22T20:14:09;94590.34;;;13.52;32.61
27958;BME280;15295;42.658;23.374;2024-03-22T20:16:46;94604.84;;;13.53;32.60
27958;BME280;15295;42.658;23.374;2024-03-22T20:19:57;94627.44;;;13.64;32.70
27958;BME280;15295;42.658;23.374;2024-03-22T20:22:53;94651.50;;;13.79;32.66
27958;BME280;15295;42.658;23.374;2024-03-22T20:35:47;94656.84;;;13.63;32.82
